createdAt,value
2023-06-29T00:01:25.433Z,15.40
2023-06-29T00:04:30.741Z,15.42
2023-06-29T00:07:34.948Z,15.43
2023-06-29T00:10:38.854Z,15.45
2023-06-29T00:13:43.025Z,15.43
2023-06-29T00:16:51.675Z,15.46
2023-06-29T00:19:55.509Z,15.48
2023-06-29T00:23:00.465Z,15.48
2023-06-29T00:26:05.056Z,15.49
2023-06-29T00:29:08.614Z,15.49
2023-06-29T00:32:15.367Z,15.51
2023-06-29T00:35:21.828Z,15.52
2023-06-29T00:38:26.175Z,15.53
2023-06-29T00:41:29.866Z,15.55
2023-06-29T00:44:33.842Z,15.58
2023-06-29T00:47:39.295Z,15.59
2023-06-29T00:50:44.340Z,15.60
2023-06-29T00:53:51.787Z,15.62
2023-06-29T00:57:00.019Z,15.62
2023-06-29T01:00:06.934Z,15.61
2023-06-29T01:03:15.478Z,15.61
2023-06-29T01:06:25.272Z,15.61
2023-06-29T01:09:32.408Z,15.60
2023-06-29T01:12:37.212Z,15.60
2023-06-29T01:15:43.292Z,15.61
2023-06-29T01:18:50.292Z,15.61
2023-06-29T01:22:03.262Z,15.60
2023-06-29T01:25:11.696Z,15.60
2023-06-29T01:28:15.969Z,15.62
2023-06-29T01:31:19.939Z,15.62
2023-06-29T01:34:24.206Z,15.61
2023-06-29T01:37:33.440Z,15.60
2023-06-29T01:40:42.904Z,15.60
2023-06-29T01:43:47.479Z,15.59
2023-06-29T01:46:56.492Z,15.61
2023-06-29T01:50:01.175Z,15.61
2023-06-29T01:53:05.395Z,15.60
2023-06-29T01:56:10.589Z,15.60
2023-06-29T01:59:14.752Z,15.61
2023-06-29T02:02:18.422Z,15.58
2023-06-29T02:05:22.680Z,15.59
2023-06-29T02:08:27.642Z,15.57
2023-06-29T02:11:32.967Z,15.56
2023-06-29T02:14:36.744Z,15.56
2023-06-29T02:17:40.642Z,15.55
2023-06-29T02:20:44.520Z,15.55
2023-06-29T02:23:48.470Z,15.57
2023-06-29T02:26:54.075Z,15.55
2023-06-29T02:29:58.135Z,15.55
2023-06-29T02:33:01.730Z,15.56
2023-06-29T02:36:06.772Z,15.55
2023-06-29T02:39:10.848Z,15.55
2023-06-29T02:42:16.253Z,15.54
2023-06-29T02:45:19.873Z,15.53
2023-06-29T02:48:24.028Z,15.53
2023-06-29T02:51:28.050Z,15.52
2023-06-29T02:54:37.883Z,15.49
2023-06-29T02:57:42.942Z,15.45
2023-06-29T03:00:46.824Z,15.41
2023-06-29T03:03:50.592Z,15.40
2023-06-29T03:06:54.474Z,15.41
2023-06-29T03:09:58.059Z,15.40
2023-06-29T03:13:03.219Z,15.40
2023-06-29T03:16:09.183Z,15.39
2023-06-29T03:19:14.866Z,15.37
2023-06-29T03:22:18.573Z,15.38
2023-06-29T03:25:22.780Z,15.38
2023-06-29T03:28:28.015Z,15.43
2023-06-29T03:31:31.851Z,15.45
2023-06-29T03:34:35.541Z,15.40
2023-06-29T03:37:39.495Z,15.36
2023-06-29T03:40:43.124Z,15.31
2023-06-29T03:43:49.449Z,15.26
2023-06-29T03:46:53.818Z,15.26
2023-06-29T03:49:57.863Z,15.27
2023-06-29T03:53:01.484Z,15.26
2023-06-29T03:56:05.932Z,15.29
2023-06-29T03:59:10.917Z,15.29
2023-06-29T04:02:14.975Z,15.29
2023-06-29T04:05:19.321Z,15.29
2023-06-29T04:08:23.768Z,15.29
2023-06-29T04:11:27.358Z,15.29
2023-06-29T04:14:32.717Z,15.26
2023-06-29T04:17:36.603Z,15.29
2023-06-29T04:20:40.493Z,15.30
2023-06-29T04:23:44.139Z,15.31
2023-06-29T04:26:48.002Z,15.35
2023-06-29T04:29:53.433Z,15.33
2023-06-29T04:33:00.864Z,15.39
2023-06-29T04:36:05.265Z,15.39
2023-06-29T04:39:09.974Z,15.42
2023-06-29T04:42:14.744Z,15.48
2023-06-29T04:45:20.080Z,15.55
2023-06-29T04:48:30.009Z,15.59
2023-06-29T04:51:33.889Z,15.61
2023-06-29T04:54:37.845Z,15.65
2023-06-29T04:57:41.686Z,15.69
2023-06-29T05:00:47.330Z,15.69
2023-06-29T05:03:51.749Z,15.73
2023-06-29T05:06:56.201Z,15.79
2023-06-29T05:10:00.542Z,15.81
2023-06-29T05:13:04.186Z,15.84
2023-06-29T05:16:09.800Z,15.87
2023-06-29T05:19:13.824Z,15.91
2023-06-29T05:22:17.864Z,15.95
2023-06-29T05:25:21.946Z,16.00
2023-06-29T05:28:25.661Z,16.08
2023-06-29T05:31:30.816Z,16.13
2023-06-29T05:34:36.598Z,16.20
2023-06-29T05:37:40.900Z,16.29
2023-06-29T05:40:44.977Z,16.35
2023-06-29T05:43:48.859Z,16.40
2023-06-29T05:46:54.013Z,16.47
2023-06-29T05:49:57.736Z,16.59
2023-06-29T05:53:01.530Z,16.68
2023-06-29T05:56:05.835Z,16.69
2023-06-29T05:59:09.666Z,16.62
2023-06-29T06:02:14.644Z,16.55
2023-06-29T06:05:18.608Z,16.56
2023-06-29T06:08:22.509Z,16.53
2023-06-29T06:11:26.333Z,16.56
2023-06-29T06:14:30.111Z,16.70
2023-06-29T06:17:35.324Z,16.80
2023-06-29T06:20:39.269Z,16.90
2023-06-29T06:23:43.010Z,16.94
2023-06-29T06:26:47.006Z,16.90
2023-06-29T06:29:50.737Z,16.89
2023-06-29T06:32:55.743Z,16.90
2023-06-29T06:36:00.751Z,16.99
2023-06-29T06:39:04.893Z,17.10
2023-06-29T06:42:08.986Z,17.15
2023-06-29T06:45:14.769Z,17.21
2023-06-29T06:48:20.091Z,17.26
2023-06-29T06:51:24.233Z,17.31
2023-06-29T06:54:28.097Z,17.33
2023-06-29T06:57:31.937Z,17.32
2023-06-29T07:00:35.918Z,17.27
2023-06-29T07:03:41.141Z,17.29
2023-06-29T07:06:44.851Z,17.36
2023-06-29T07:09:49.445Z,17.40
2023-06-29T07:12:53.396Z,17.41
2023-06-29T07:15:57.965Z,17.26
2023-06-29T07:25:22.290Z,17.63
2023-06-29T07:28:25.996Z,17.76
2023-06-29T07:31:30.892Z,17.85
2023-06-29T07:34:36.027Z,17.86
2023-06-29T07:37:39.745Z,17.94
2023-06-29T07:40:43.665Z,18.14
2023-06-29T07:43:51.309Z,18.30
2023-06-29T07:46:54.986Z,18.50
2023-06-29T07:50:00.151Z,18.79
2023-06-29T07:53:04.023Z,19.03
2023-06-29T07:56:07.821Z,19.39
2023-06-29T07:59:11.543Z,19.70
2023-06-29T08:02:15.559Z,19.87
2023-06-29T08:08:31.068Z,20.18
2023-06-29T08:11:35.283Z,20.27
2023-06-29T08:14:40.188Z,20.35
2023-06-29T08:17:44.505Z,20.35
2023-06-29T08:20:50.031Z,20.45
2023-06-29T08:23:54.138Z,20.67
2023-06-29T08:26:57.878Z,20.78
2023-06-29T08:30:03.441Z,20.80
2023-06-29T08:33:07.432Z,20.81
2023-06-29T08:36:13.079Z,20.91
2023-06-29T08:39:16.764Z,21.18
2023-06-29T08:42:20.898Z,21.43
2023-06-29T08:45:24.816Z,21.62
2023-06-29T08:48:32.232Z,21.68
2023-06-29T08:51:41.562Z,21.39
2023-06-29T08:54:45.586Z,21.16
2023-06-29T08:57:49.453Z,21.20
2023-06-29T09:00:55.619Z,21.46
2023-06-29T09:03:59.929Z,21.72
2023-06-29T09:07:05.584Z,21.78
2023-06-29T09:10:12.612Z,21.75
2023-06-29T09:13:16.424Z,21.88
2023-06-29T09:16:20.260Z,21.96
2023-06-29T09:19:25.525Z,21.80
2023-06-29T09:22:31.978Z,21.61
2023-06-29T09:25:40.132Z,21.65
2023-06-29T09:28:47.905Z,21.63
2023-06-29T09:31:58.508Z,21.74
2023-06-29T09:35:08.313Z,21.92
2023-06-29T09:38:13.752Z,21.93
2023-06-29T09:41:17.410Z,21.90
2023-06-29T09:44:22.356Z,21.77
2023-06-29T09:50:35.064Z,22.12
2023-06-29T09:53:40.259Z,22.48
2023-06-29T09:56:45.242Z,22.58
2023-06-29T09:59:50.848Z,22.42
2023-06-29T10:02:55.702Z,22.42
2023-06-29T10:06:08.632Z,22.48
2023-06-29T10:09:18.647Z,22.63
2023-06-29T10:12:27.475Z,22.88
2023-06-29T10:15:31.776Z,22.86
2023-06-29T10:18:39.766Z,22.57
2023-06-29T10:21:45.145Z,22.55
2023-06-29T10:24:55.452Z,22.75
2023-06-29T10:27:59.342Z,22.99
2023-06-29T10:31:03.245Z,23.22
2023-06-29T10:34:09.390Z,23.34
2023-06-29T10:37:31.686Z,23.33
2023-06-29T10:40:48.201Z,22.90
2023-06-29T10:43:59.214Z,22.56
2023-06-29T10:47:03.225Z,22.71
2023-06-29T10:50:21.459Z,23.17
2023-06-29T10:53:25.121Z,23.54
2023-06-29T10:56:33.497Z,23.70
2023-06-29T10:59:38.511Z,23.69
2023-06-29T11:02:43.496Z,23.94
2023-06-29T11:05:50.398Z,24.09
2023-06-29T11:08:54.202Z,24.16
2023-06-29T11:12:01.630Z,24.41
2023-06-29T11:18:33.463Z,24.58
2023-06-29T11:21:37.194Z,24.75
2023-06-29T11:24:43.855Z,25.00
2023-06-29T11:27:49.123Z,25.00
2023-06-29T11:30:56.134Z,24.83
2023-06-29T11:34:01.385Z,24.53
2023-06-29T11:40:21.544Z,23.98
2023-06-29T11:46:35.804Z,24.17
2023-06-29T11:49:39.679Z,24.78
2023-06-29T11:52:45.707Z,25.32
2023-06-29T11:55:52.740Z,25.70
2023-06-29T11:58:57.794Z,25.93
2023-06-29T12:02:02.428Z,25.75
2023-06-29T12:05:07.374Z,25.33
2023-06-29T12:08:11.679Z,25.11
2023-06-29T12:11:22.964Z,25.17
2023-06-29T12:14:31.070Z,25.26
2023-06-29T12:20:44.695Z,25.13
2023-06-29T12:23:50.709Z,25.29
2023-06-29T12:26:54.397Z,25.59
2023-06-29T12:29:59.531Z,26.09
2023-06-29T12:33:03.442Z,26.57
2023-06-29T12:36:07.175Z,26.84
2023-06-29T12:39:11.143Z,26.71
2023-06-29T12:42:14.873Z,26.60
2023-06-29T12:45:20.789Z,26.54
2023-06-29T12:48:24.563Z,26.65
2023-06-29T12:51:30.312Z,26.60
2023-06-29T12:54:34.869Z,26.42
2023-06-29T12:57:40.295Z,26.89
2023-06-29T13:00:45.555Z,27.05
2023-06-29T13:03:49.620Z,27.21
2023-06-29T13:06:55.942Z,27.01
2023-06-29T13:10:00.462Z,26.64
2023-06-29T13:13:04.930Z,26.68
2023-06-29T13:16:10.291Z,29.39
2023-06-29T13:19:14.026Z,32.59
2023-06-29T13:22:19.870Z,35.49
2023-06-29T13:25:23.650Z,37.04
2023-06-29T13:28:27.822Z,37.29
2023-06-29T13:31:33.003Z,35.88
2023-06-29T13:34:36.793Z,37.84
2023-06-29T13:37:40.490Z,39.75
2023-06-29T13:40:44.587Z,37.93
2023-06-29T13:43:48.522Z,36.97
2023-06-29T13:46:53.858Z,39.36
2023-06-29T13:49:57.562Z,41.26
2023-06-29T13:53:02.644Z,42.03
2023-06-29T13:56:06.867Z,43.25
2023-06-29T13:59:11.406Z,44.03
2023-06-29T14:02:16.763Z,43.88
2023-06-29T14:05:21.451Z,44.09
2023-06-29T14:08:25.803Z,40.89
2023-06-29T14:11:29.917Z,39.46
2023-06-29T14:14:36.279Z,38.09
2023-06-29T14:17:42.590Z,35.59
2023-06-29T14:20:46.396Z,36.99
2023-06-29T14:23:50.872Z,39.59
2023-06-29T14:26:54.954Z,41.59
2023-06-29T14:29:59.015Z,41.13
2023-06-29T14:33:10.270Z,39.44
2023-06-29T14:36:19.725Z,40.88
2023-06-29T14:39:23.411Z,42.39
2023-06-29T14:42:27.248Z,43.56
2023-06-29T14:45:30.901Z,44.75
2023-06-29T14:48:36.037Z,45.48
2023-06-29T14:51:39.933Z,45.73
2023-06-29T14:54:43.898Z,44.99
2023-06-29T14:57:49.748Z,45.00
2023-06-29T15:00:54.528Z,43.65
2023-06-29T15:03:59.849Z,43.93
2023-06-29T15:07:04.068Z,44.60
2023-06-29T15:10:09.231Z,44.76
2023-06-29T15:13:13.026Z,45.14
2023-06-29T15:16:17.222Z,45.25
2023-06-29T15:19:22.420Z,44.73
2023-06-29T15:22:26.372Z,44.56
2023-06-29T15:25:30.486Z,44.66
2023-06-29T15:28:34.284Z,44.74
2023-06-29T15:31:38.068Z,44.84
2023-06-29T15:34:43.206Z,44.58
2023-06-29T15:37:47.094Z,44.65
2023-06-29T15:40:51.565Z,44.46
2023-06-29T15:44:01.406Z,43.25
2023-06-29T15:47:07.327Z,43.16
2023-06-29T15:50:13.125Z,43.43
2023-06-29T15:53:16.898Z,43.86
2023-06-29T15:56:20.883Z,43.58
2023-06-29T16:07:49.739Z,42.97
2023-06-29T16:10:55.895Z,42.90
2023-06-29T16:13:59.705Z,42.01
2023-06-29T16:17:03.934Z,41.67
2023-06-29T16:20:09.477Z,41.52
2023-06-29T16:23:14.879Z,41.42
2023-06-29T16:26:19.077Z,41.24
2023-06-29T16:29:23.322Z,40.96
2023-06-29T16:32:27.002Z,40.77
2023-06-29T16:35:30.840Z,40.65
2023-06-29T16:38:35.893Z,40.05
2023-06-29T16:41:40.571Z,39.25
2023-06-29T16:44:44.163Z,38.99
2023-06-29T16:47:48.034Z,38.63
2023-06-29T16:50:51.614Z,38.40
2023-06-29T16:53:57.161Z,37.86
2023-06-29T16:57:00.722Z,37.58
2023-06-29T17:00:05.327Z,37.12
2023-06-29T17:03:09.172Z,36.75
2023-06-29T17:06:13.458Z,36.37
2023-06-29T17:09:18.968Z,36.18
2023-06-29T17:12:23.062Z,36.06
2023-06-29T17:15:26.843Z,35.62
2023-06-29T17:18:30.704Z,35.08
2023-06-29T17:21:34.254Z,34.98
2023-06-29T17:24:41.140Z,34.59
2023-06-29T17:27:44.664Z,34.31
2023-06-29T17:30:49.569Z,33.79
2023-06-29T17:33:55.317Z,33.58
2023-06-29T17:37:01.122Z,33.36
2023-06-29T17:40:10.657Z,32.99
2023-06-29T17:43:14.479Z,32.77
2023-06-29T17:46:18.231Z,32.61
2023-06-29T17:49:26.132Z,32.26
2023-06-29T17:52:30.214Z,31.80
2023-06-29T17:55:35.547Z,31.47
2023-06-29T17:58:39.242Z,31.17
2023-06-29T18:01:43.141Z,30.94
2023-06-29T18:04:46.707Z,30.57
2023-06-29T18:07:50.589Z,30.21
2023-06-29T18:10:55.900Z,29.76
2023-06-29T18:14:00.219Z,29.05
2023-06-29T18:17:04.627Z,28.28
2023-06-29T18:20:10.895Z,27.43
2023-06-29T18:23:14.536Z,26.78
2023-06-29T18:26:20.556Z,26.25
2023-06-29T18:29:24.579Z,25.86
2023-06-29T18:32:28.603Z,25.48
2023-06-29T18:35:32.283Z,25.12
2023-06-29T18:38:35.981Z,24.79
2023-06-29T18:41:40.857Z,24.46
2023-06-29T18:44:44.566Z,24.19
2023-06-29T18:47:48.934Z,23.83
2023-06-29T18:50:52.792Z,23.52
2023-06-29T18:53:56.320Z,23.25
2023-06-29T18:57:03.738Z,23.00
2023-06-29T19:00:09.690Z,22.78
2023-06-29T19:03:13.627Z,22.53
2023-06-29T19:06:17.478Z,22.32
2023-06-29T19:09:24.558Z,22.05
2023-06-29T19:12:29.781Z,21.79
2023-06-29T19:15:33.733Z,21.57
2023-06-29T19:18:37.589Z,21.33
2023-06-29T19:21:49.138Z,21.16
2023-06-29T19:24:54.169Z,20.95
2023-06-29T19:27:59.583Z,20.79
2023-06-29T19:31:03.610Z,20.62
2023-06-29T19:34:08.170Z,20.47
2023-06-29T19:37:12.073Z,20.37
2023-06-29T19:40:16.014Z,20.23
2023-06-29T19:43:21.125Z,20.13
2023-06-29T19:46:25.126Z,20.00
2023-06-29T19:49:28.870Z,19.87
2023-06-29T19:52:32.858Z,19.75
2023-06-29T19:55:36.550Z,19.67
2023-06-29T19:58:41.995Z,19.58
2023-06-29T20:01:45.710Z,19.52
2023-06-29T20:04:50.503Z,19.43
2023-06-29T20:07:55.486Z,19.36
2023-06-29T20:10:59.416Z,19.30
2023-06-29T20:14:04.982Z,19.19
2023-06-29T20:17:09.069Z,19.10
2023-06-29T20:20:14.102Z,18.99
2023-06-29T20:23:19.978Z,18.89
2023-06-29T20:26:23.893Z,18.78
2023-06-29T20:29:29.062Z,18.63
2023-06-29T20:32:33.134Z,18.48
2023-06-29T20:35:37.750Z,18.35
2023-06-29T20:38:43.086Z,18.28
2023-06-29T20:41:47.225Z,18.21
2023-06-29T20:44:57.414Z,18.13
2023-06-29T20:48:01.530Z,18.05
2023-06-29T20:51:17.176Z,17.97
2023-06-29T20:54:22.830Z,17.91
2023-06-29T20:57:26.535Z,17.85
2023-06-29T21:00:33.920Z,17.82
